createdAt,value
2023-01-13T00:01:27.062Z,14.60
2023-01-13T00:03:54.428Z,16.63
2023-01-13T00:06:25.919Z,13.73
2023-01-13T00:08:54.104Z,14.70
2023-01-13T00:11:22.382Z,12.73
2023-01-13T00:13:49.665Z,12.93
2023-01-13T00:16:18.637Z,15.32
2023-01-13T00:18:46.313Z,13.23
2023-01-13T00:21:16.595Z,13.02
2023-01-13T00:23:44.306Z,13.60
2023-01-13T00:26:15.794Z,14.55
2023-01-13T00:28:43.226Z,13.93
2023-01-13T00:31:21.487Z,17.15
2023-01-13T00:33:49.464Z,13.15
2023-01-13T00:36:18.739Z,16.87
2023-01-13T00:38:45.916Z,13.75
2023-01-13T00:41:15.923Z,14.32
2023-01-13T00:43:43.183Z,11.30
2023-01-13T00:46:12.502Z,14.98
2023-01-13T00:48:39.670Z,11.53
2023-01-13T00:51:18.774Z,14.98
2023-01-13T00:53:49.090Z,15.98
2023-01-13T00:56:34.012Z,15.27
2023-01-13T00:59:05.443Z,13.30
2023-01-13T01:01:33.005Z,11.50
2023-01-13T01:04:00.098Z,11.38
2023-01-13T01:06:28.283Z,16.50
2023-01-13T01:08:56.468Z,16.13
2023-01-13T01:11:29.654Z,10.95
2023-01-13T01:13:59.014Z,13.03
2023-01-13T01:16:27.880Z,10.25
2023-01-13T01:18:55.349Z,14.90
2023-01-13T01:21:24.150Z,13.85
2023-01-13T01:23:51.276Z,12.68
2023-01-13T01:26:24.207Z,14.93
2023-01-13T01:28:52.068Z,12.43
2023-01-13T01:31:25.000Z,14.05
2023-01-13T01:33:53.274Z,11.73
2023-01-13T01:36:22.193Z,8.98
2023-01-13T01:38:50.001Z,12.67
2023-01-13T01:41:20.431Z,13.75
2023-01-13T01:44:04.616Z,14.45
2023-01-13T01:46:38.534Z,12.32
2023-01-13T01:49:17.831Z,8.15
2023-01-13T01:52:04.569Z,13.03
2023-01-13T01:54:45.498Z,12.90
2023-01-13T01:57:17.141Z,14.95
2023-01-13T01:59:45.005Z,11.02
2023-01-13T02:02:12.428Z,12.60
2023-01-13T02:04:43.471Z,11.00
2023-01-13T02:07:10.964Z,13.45
2023-01-13T02:09:38.140Z,11.85
2023-01-13T02:12:23.774Z,14.63
2023-01-13T02:14:50.893Z,15.13
2023-01-13T02:17:29.869Z,11.00
2023-01-13T02:20:22.813Z,15.13
2023-01-13T02:23:38.873Z,15.38
2023-01-13T02:26:24.184Z,12.70
2023-01-13T02:29:26.122Z,9.55
2023-01-13T02:31:59.466Z,9.20
2023-01-13T02:34:41.184Z,12.38
2023-01-13T02:37:17.069Z,12.05
2023-01-13T02:40:10.697Z,12.68
2023-01-13T02:43:03.151Z,8.98
2023-01-13T02:45:40.255Z,11.33
2023-01-13T02:48:09.566Z,9.45
2023-01-13T02:50:41.656Z,11.57
2023-01-13T02:53:20.406Z,12.85
2023-01-13T02:55:51.624Z,8.35
2023-01-13T02:58:24.458Z,11.07
2023-01-13T03:00:52.481Z,9.18
2023-01-13T03:03:19.876Z,9.80
2023-01-13T03:05:49.929Z,11.07
2023-01-13T03:08:43.194Z,9.93
2023-01-13T03:11:13.244Z,9.77
2023-01-13T03:14:04.613Z,12.38
2023-01-13T03:16:59.862Z,9.65
2023-01-13T03:19:57.339Z,9.50
2023-01-13T03:23:22.732Z,8.43
2023-01-13T03:26:01.867Z,9.07
2023-01-13T03:28:36.225Z,7.63
2023-01-13T03:31:13.873Z,10.10
2023-01-13T03:34:05.004Z,9.32
2023-01-13T03:36:32.780Z,8.60
2023-01-13T03:39:08.312Z,8.60
2023-01-13T03:42:00.081Z,9.95
2023-01-13T03:44:33.991Z,11.48
2023-01-13T03:47:04.282Z,9.75
2023-01-13T03:49:51.110Z,10.75
2023-01-13T03:52:35.272Z,8.83
2023-01-13T03:55:18.782Z,9.18
2023-01-13T03:58:06.951Z,8.43
2023-01-13T04:00:46.282Z,7.10
2023-01-13T04:03:39.597Z,8.98
2023-01-13T04:06:40.594Z,9.37
2023-01-13T04:09:41.796Z,8.82
2023-01-13T04:12:19.284Z,9.77
2023-01-13T04:14:46.827Z,7.68
2023-01-13T04:17:14.165Z,7.93
2023-01-13T04:19:41.211Z,7.73
2023-01-13T04:22:08.209Z,9.13
2023-01-13T04:24:35.314Z,10.18
2023-01-13T04:27:02.539Z,9.15
2023-01-13T04:29:29.537Z,8.75
2023-01-13T04:31:56.541Z,8.47
2023-01-13T04:34:23.492Z,10.68
2023-01-13T04:36:50.527Z,10.65
2023-01-13T04:39:18.182Z,10.77
2023-01-13T04:42:01.383Z,9.30
2023-01-13T04:44:31.448Z,7.13
2023-01-13T04:46:58.915Z,11.00
2023-01-13T04:49:27.334Z,10.50
2023-01-13T04:51:54.345Z,12.80
2023-01-13T04:54:21.442Z,9.70
2023-01-13T04:56:48.571Z,11.00
2023-01-13T04:59:15.659Z,8.85
2023-01-13T05:01:42.987Z,10.13
2023-01-13T05:04:10.204Z,10.43
2023-01-13T05:06:37.324Z,10.00
2023-01-13T05:09:04.321Z,9.40
2023-01-13T05:11:50.296Z,6.85
2023-01-13T05:14:35.832Z,9.50
2023-01-13T05:17:03.756Z,8.90
2023-01-13T05:19:34.242Z,10.18
2023-01-13T05:22:20.759Z,9.83
2023-01-13T05:25:06.327Z,7.47
2023-01-13T05:27:33.894Z,13.30
2023-01-13T05:30:01.309Z,10.20
2023-01-13T05:32:28.726Z,9.35
2023-01-13T05:34:56.407Z,8.30
2023-01-13T05:37:24.483Z,8.48
2023-01-13T05:40:10.548Z,9.02
2023-01-13T05:42:56.204Z,8.75
2023-01-13T05:45:23.776Z,8.00
2023-01-13T05:47:50.832Z,11.40
2023-01-13T05:50:18.192Z,8.05
2023-01-13T05:52:45.155Z,9.57
2023-01-13T05:55:12.598Z,10.82
2023-01-13T05:57:40.542Z,8.50
2023-01-13T06:00:08.289Z,8.53
2023-01-13T06:02:41.551Z,8.95
2023-01-13T06:05:08.920Z,9.45
2023-01-13T06:07:35.885Z,9.35
2023-01-13T06:10:02.901Z,10.52
2023-01-13T06:12:30.748Z,9.80
2023-01-13T06:14:57.759Z,9.52
2023-01-13T06:17:24.757Z,7.63
2023-01-13T06:19:51.786Z,9.85
2023-01-13T06:22:23.411Z,8.32
2023-01-13T06:24:51.343Z,8.50
2023-01-13T06:27:18.664Z,9.68
2023-01-13T06:29:45.673Z,10.90
2023-01-13T06:32:17.451Z,7.85
2023-01-13T06:34:49.469Z,7.72
2023-01-13T06:37:21.749Z,10.00
2023-01-13T06:39:49.565Z,9.43
2023-01-13T06:42:35.322Z,7.72
2023-01-13T06:45:02.491Z,8.55
2023-01-13T06:47:30.102Z,8.82
2023-01-13T06:49:57.447Z,11.03
2023-01-13T06:52:24.579Z,8.63
2023-01-13T06:54:51.756Z,9.90
2023-01-13T06:57:18.754Z,6.68
2023-01-13T06:59:45.783Z,9.73
2023-01-13T07:02:12.888Z,10.13
2023-01-13T07:04:39.949Z,10.43
2023-01-13T07:07:08.133Z,9.30
2023-01-13T07:09:35.124Z,8.13
2023-01-13T07:12:02.218Z,7.47
2023-01-13T07:14:47.668Z,10.00
2023-01-13T07:17:14.678Z,9.70
2023-01-13T07:19:41.765Z,12.77
2023-01-13T07:22:08.796Z,12.02
2023-01-13T07:24:35.825Z,8.52
2023-01-13T07:27:02.775Z,10.83
2023-01-13T07:29:29.781Z,6.75
2023-01-13T07:31:56.952Z,9.05
2023-01-13T07:34:24.065Z,6.40
2023-01-13T07:36:51.027Z,8.10
2023-01-13T07:39:18.106Z,9.47
2023-01-13T07:42:03.629Z,10.25
2023-01-13T07:44:30.666Z,9.05
2023-01-13T07:46:57.645Z,9.13
2023-01-13T07:49:24.741Z,8.35
2023-01-13T07:51:51.881Z,9.73
2023-01-13T07:54:35.112Z,7.55
2023-01-13T07:57:07.038Z,10.38
2023-01-13T07:59:34.022Z,9.98
2023-01-13T08:02:01.235Z,8.65
2023-01-13T08:04:28.518Z,7.03
2023-01-13T08:06:58.261Z,7.20
2023-01-13T08:09:26.128Z,8.07
2023-01-13T08:12:14.414Z,7.60
2023-01-13T08:14:41.810Z,7.53
2023-01-13T08:17:09.861Z,7.83
2023-01-13T08:19:37.043Z,9.02
2023-01-13T08:22:04.118Z,9.90
2023-01-13T08:24:31.176Z,8.90
2023-01-13T08:26:58.273Z,10.02
2023-01-13T08:29:25.354Z,7.17
2023-01-13T08:31:52.366Z,7.70
2023-01-13T08:34:19.603Z,8.52
2023-01-13T08:36:49.134Z,9.10
2023-01-13T08:39:16.229Z,7.65
2023-01-13T08:41:55.917Z,7.60
2023-01-13T08:44:24.865Z,9.40
2023-01-13T08:46:52.209Z,7.53
2023-01-13T08:49:19.802Z,9.30
2023-01-13T08:51:46.968Z,7.22
2023-01-13T08:54:14.771Z,11.50
2023-01-13T08:56:43.581Z,9.38
2023-01-13T08:59:15.313Z,9.95
2023-01-13T09:01:42.852Z,8.32
2023-01-13T09:04:17.929Z,8.45
2023-01-13T09:06:45.354Z,7.67
2023-01-13T09:09:12.856Z,7.45
2023-01-13T09:12:01.970Z,8.20
2023-01-13T09:14:31.699Z,8.30
2023-01-13T09:16:59.659Z,9.65
2023-01-13T09:19:28.251Z,7.77
2023-01-13T09:21:57.449Z,11.27
2023-01-13T09:24:25.319Z,12.93
2023-01-13T09:26:52.669Z,10.00
2023-01-13T09:29:19.894Z,10.25
2023-01-13T09:31:48.332Z,8.93
2023-01-13T09:34:36.895Z,8.73
2023-01-13T09:37:06.345Z,11.35
2023-01-13T09:39:34.859Z,8.15
2023-01-13T09:42:58.866Z,7.97
2023-01-13T09:45:42.677Z,8.87
2023-01-13T09:48:29.400Z,10.50
2023-01-13T09:51:25.160Z,12.68
2023-01-13T09:53:59.290Z,7.88
2023-01-13T09:56:26.893Z,8.02
2023-01-13T09:58:54.253Z,10.27
2023-01-13T10:01:32.673Z,7.50
2023-01-13T10:04:11.911Z,8.18
2023-01-13T10:06:45.771Z,9.68
2023-01-13T10:09:25.956Z,8.27
2023-01-13T10:12:15.012Z,10.60
2023-01-13T10:14:47.672Z,9.85
2023-01-13T10:17:39.400Z,6.97
2023-01-13T10:20:17.045Z,10.05
2023-01-13T10:22:43.990Z,10.25
2023-01-13T10:25:32.748Z,8.80
2023-01-13T10:28:10.713Z,7.95
2023-01-13T10:30:43.466Z,8.73
2023-01-13T10:33:17.767Z,10.40
2023-01-13T10:35:58.173Z,8.68
2023-01-13T10:38:36.574Z,7.53
2023-01-13T10:41:17.125Z,9.40
2023-01-13T10:44:09.356Z,8.93
2023-01-13T10:46:55.318Z,7.75
2023-01-13T10:49:38.801Z,10.13
2023-01-13T10:52:28.214Z,8.13
2023-01-13T10:54:55.978Z,9.52
2023-01-13T10:57:25.233Z,9.07
2023-01-13T10:59:53.239Z,10.68
2023-01-13T11:02:29.907Z,7.35
2023-01-13T11:04:58.259Z,8.77
2023-01-13T11:07:31.141Z,8.80
2023-01-13T11:10:22.357Z,8.05
2023-01-13T11:13:01.368Z,11.35
2023-01-13T11:15:57.904Z,10.80
2023-01-13T11:19:14.338Z,7.60
2023-01-13T11:21:50.659Z,10.50
2023-01-13T11:24:40.907Z,9.68
2023-01-13T11:27:46.690Z,9.00
2023-01-13T11:30:48.501Z,8.88
2023-01-13T11:33:16.973Z,8.20
2023-01-13T11:36:09.415Z,8.50
2023-01-13T11:38:48.510Z,8.70
2023-01-13T11:41:35.781Z,8.27
2023-01-13T11:44:17.133Z,9.40
2023-01-13T11:46:44.429Z,9.43
2023-01-13T11:49:25.073Z,10.55
2023-01-13T11:52:20.812Z,8.98
2023-01-13T11:55:22.688Z,8.57
2023-01-13T11:58:01.966Z,7.30
2023-01-13T12:00:33.118Z,8.17
2023-01-13T12:03:18.866Z,9.63
2023-01-13T12:05:59.925Z,9.60
2023-01-13T12:08:50.060Z,7.95
2023-01-13T12:11:58.763Z,13.30
2023-01-13T12:14:34.744Z,9.70
2023-01-13T12:17:07.133Z,16.65
2023-01-13T12:19:34.205Z,9.65
2023-01-13T12:22:15.302Z,7.95
2023-01-13T12:24:55.526Z,9.98
2023-01-13T12:27:49.412Z,8.97
2023-01-13T12:30:29.712Z,10.55
2023-01-13T12:33:03.467Z,10.98
2023-01-13T12:35:42.368Z,9.65
2023-01-13T12:38:21.291Z,10.18
2023-01-13T12:41:13.042Z,10.73
2023-01-13T12:44:05.508Z,11.02
2023-01-13T12:46:32.440Z,11.20
2023-01-13T12:49:02.503Z,11.60
2023-01-13T12:51:33.546Z,9.45
2023-01-13T12:54:02.460Z,14.43
2023-01-13T12:56:36.592Z,9.35
2023-01-13T12:59:24.415Z,10.57
2023-01-13T13:02:12.913Z,13.10
2023-01-13T13:04:49.612Z,11.30
2023-01-13T13:07:32.051Z,11.57
2023-01-13T13:10:05.276Z,11.73
2023-01-13T13:13:00.178Z,10.27
2023-01-13T13:15:30.201Z,10.02
2023-01-13T13:18:00.442Z,9.70
2023-01-13T13:21:05.234Z,10.53
2023-01-13T13:23:50.190Z,8.65
2023-01-13T13:26:30.879Z,13.63
2023-01-13T13:29:35.181Z,13.10
2023-01-13T13:32:17.660Z,11.13
2023-01-13T13:35:05.828Z,11.07
2023-01-13T13:38:16.688Z,15.68
2023-01-13T13:41:06.064Z,9.93
2023-01-13T13:43:59.320Z,13.95
2023-01-13T13:46:47.858Z,9.88
2023-01-13T13:49:18.081Z,12.57
2023-01-13T13:52:11.069Z,14.55
2023-01-13T13:54:42.619Z,11.68
2023-01-13T13:57:23.039Z,12.35
2023-01-13T13:59:57.777Z,11.82
2023-01-13T14:02:30.844Z,12.33
2023-01-13T14:05:27.201Z,15.60
2023-01-13T14:08:10.407Z,10.55
2023-01-13T14:10:40.076Z,13.93
2023-01-13T14:13:19.316Z,11.20
2023-01-13T14:15:48.397Z,13.20
2023-01-13T14:18:21.485Z,12.05
2023-01-13T14:21:00.502Z,14.80
2023-01-13T14:23:32.650Z,9.90
2023-01-13T14:26:08.073Z,13.50
2023-01-13T14:28:37.799Z,10.47
2023-01-13T14:31:07.105Z,11.27
2023-01-13T14:33:39.638Z,11.55
2023-01-13T14:36:15.095Z,13.00
2023-01-13T14:38:44.629Z,14.15
2023-01-13T14:41:22.833Z,11.93
2023-01-13T14:43:51.851Z,12.48
2023-01-13T14:46:21.197Z,14.70
2023-01-13T14:48:50.221Z,12.25
2023-01-13T14:51:27.161Z,12.32
2023-01-13T14:53:55.094Z,14.43
2023-01-13T14:56:50.006Z,14.27
2023-01-13T14:59:36.846Z,14.20
2023-01-13T15:02:29.184Z,14.23
2023-01-13T15:05:19.232Z,14.38
2023-01-13T15:08:09.961Z,12.93
2023-01-13T15:11:13.405Z,12.60
2023-01-13T15:13:53.129Z,11.85
2023-01-13T15:16:28.226Z,10.82
2023-01-13T15:18:56.505Z,12.27
2023-01-13T15:21:25.168Z,11.63
2023-01-13T15:23:52.317Z,15.98
2023-01-13T15:26:53.390Z,13.55
2023-01-13T15:46:34.741Z,14.60
2023-01-13T15:49:35.162Z,14.32
2023-01-13T15:52:18.095Z,14.85
2023-01-13T15:54:45.128Z,15.37
2023-01-13T15:57:33.020Z,13.88
2023-01-13T16:00:08.613Z,13.57
2023-01-13T16:02:35.617Z,15.15
2023-01-13T16:05:02.696Z,14.13
2023-01-13T16:07:30.680Z,15.90
2023-01-13T16:13:47.675Z,11.40
2023-01-13T16:16:25.337Z,16.40
2023-01-13T16:24:14.856Z,15.93
2023-01-13T16:26:41.832Z,15.63
2023-01-13T16:29:12.669Z,16.17
2023-01-13T16:31:42.431Z,17.15
2023-01-13T16:34:09.800Z,17.30
2023-01-13T16:36:37.455Z,14.40
2023-01-13T16:39:19.312Z,13.90
2023-01-13T16:41:46.411Z,16.05
2023-01-13T16:44:16.774Z,17.40
2023-01-13T16:46:47.823Z,16.02
2023-01-13T16:49:30.828Z,19.43
2023-01-13T16:52:05.209Z,13.60
2023-01-13T16:59:39.524Z,16.02
2023-01-13T17:02:13.251Z,17.40
2023-01-13T17:04:40.448Z,16.57
2023-01-13T17:07:08.635Z,18.58
2023-01-13T17:09:35.724Z,15.65
2023-01-13T17:12:02.769Z,17.88
2023-01-13T17:18:03.235Z,18.47
2023-01-13T17:20:31.117Z,16.02
2023-01-13T17:22:58.743Z,16.98
2023-01-13T17:25:26.522Z,15.10
2023-01-13T17:27:53.726Z,14.95
2023-01-13T17:30:21.593Z,14.33
2023-01-13T17:32:52.986Z,15.90
2023-01-13T17:35:24.859Z,20.40
2023-01-13T17:37:53.406Z,13.73
2023-01-13T17:40:20.836Z,15.57
2023-01-13T17:42:48.039Z,18.43
2023-01-13T17:45:16.551Z,19.58
2023-01-13T17:47:44.106Z,15.93
2023-01-13T17:50:11.835Z,17.00
2023-01-13T17:52:39.390Z,19.20
2023-01-13T17:55:14.094Z,17.33
2023-01-13T17:57:46.140Z,15.48
2023-01-13T18:00:14.766Z,17.05
2023-01-13T18:02:46.843Z,15.48
2023-01-13T18:05:14.523Z,19.20
2023-01-13T18:07:49.900Z,13.17
2023-01-13T18:10:34.247Z,19.20
2023-01-13T18:13:03.670Z,14.68
2023-01-13T18:15:31.239Z,16.00
2023-01-13T18:17:58.530Z,15.07
2023-01-13T18:20:47.599Z,17.60
2023-01-13T18:23:47.584Z,17.92
2023-01-13T18:26:37.962Z,12.80
2023-01-13T18:29:06.085Z,15.20
2023-01-13T18:31:33.239Z,13.85
2023-01-13T18:34:07.229Z,16.80
2023-01-13T18:41:25.407Z,16.10
2023-01-13T18:43:52.604Z,14.05
2023-01-13T18:46:19.734Z,15.75
2023-01-13T18:48:46.802Z,16.80
2023-01-13T18:51:14.039Z,14.45
2023-01-13T18:53:41.155Z,15.07
2023-01-13T18:56:13.223Z,13.85
2023-01-13T18:58:51.852Z,19.45
2023-01-13T19:01:25.841Z,15.23
2023-01-13T19:03:57.104Z,16.15
2023-01-13T19:06:35.264Z,13.90
2023-01-13T19:09:08.853Z,15.65
2023-01-13T19:11:57.212Z,14.70
2023-01-13T19:15:31.402Z,14.47
2023-01-13T19:18:09.787Z,19.30
2023-01-13T19:21:05.478Z,19.48
2023-01-13T19:23:49.563Z,14.40
2023-01-13T19:26:17.894Z,19.13
2023-01-13T19:28:45.758Z,15.87
2023-01-13T19:31:14.248Z,16.17
2023-01-13T19:33:41.581Z,17.45
2023-01-13T19:36:10.860Z,20.63
2023-01-13T19:38:38.606Z,18.38
2023-01-13T19:41:27.766Z,15.80
2023-01-13T19:44:39.489Z,23.10
2023-01-13T19:47:06.768Z,15.13
2023-01-13T19:49:34.587Z,14.98
2023-01-13T19:52:01.855Z,14.23
2023-01-13T19:54:29.081Z,15.73
2023-01-13T19:56:56.267Z,20.60
2023-01-13T19:59:29.266Z,15.85
2023-01-13T20:02:33.475Z,17.27
2023-01-13T20:05:03.417Z,20.95
2023-01-13T20:07:31.085Z,11.37
2023-01-13T20:09:58.425Z,12.65
2023-01-13T20:12:27.532Z,16.10
2023-01-13T20:14:55.063Z,16.67
2023-01-13T20:17:22.448Z,16.45
2023-01-13T20:19:49.435Z,14.07
2023-01-13T20:22:16.426Z,18.27
2023-01-13T20:24:43.540Z,17.58
2023-01-13T20:27:10.878Z,16.30
2023-01-13T20:29:38.054Z,15.73
2023-01-13T20:32:05.337Z,19.40
2023-01-13T20:34:32.573Z,14.35
2023-01-13T20:37:00.456Z,17.58
2023-01-13T20:39:28.229Z,18.02
2023-01-13T20:42:14.928Z,17.42
2023-01-13T20:44:44.166Z,15.50
2023-01-13T20:47:11.433Z,14.85
2023-01-13T20:49:41.742Z,13.60
2023-01-13T20:52:11.476Z,17.38
2023-01-13T20:54:40.139Z,18.85
2023-01-13T20:57:10.036Z,17.20
2023-01-13T20:59:38.764Z,16.45
2023-01-13T21:02:08.247Z,19.08
2023-01-13T21:04:35.194Z,16.67
2023-01-13T21:07:02.215Z,14.48
2023-01-13T21:09:29.406Z,13.30
2023-01-13T21:12:15.277Z,30.45
2023-01-13T21:15:00.693Z,18.25
2023-01-13T21:17:46.255Z,16.73
2023-01-13T21:20:14.894Z,18.08
2023-01-13T21:22:46.753Z,17.27
2023-01-13T21:25:14.559Z,14.57
2023-01-13T21:27:44.004Z,18.17
2023-01-13T21:30:14.968Z,14.43
2023-01-13T21:32:44.363Z,20.05
2023-01-13T21:35:12.807Z,20.63
2023-01-13T21:37:41.711Z,15.93
2023-01-13T21:40:13.089Z,16.20
2023-01-13T21:42:59.295Z,17.48
2023-01-13T21:45:49.427Z,19.38
2023-01-13T21:48:16.570Z,14.87
2023-01-13T21:50:43.737Z,14.75
2023-01-13T21:53:11.308Z,14.02
2023-01-13T21:55:38.285Z,14.63
2023-01-13T21:58:14.079Z,18.98
2023-01-13T22:00:45.411Z,17.23
2023-01-13T22:03:14.068Z,14.40
2023-01-13T22:05:41.242Z,14.85
2023-01-13T22:08:08.745Z,14.32
2023-01-13T22:10:36.131Z,15.70
2023-01-13T22:13:23.664Z,17.43
2023-01-13T22:15:50.712Z,17.60
2023-01-13T22:18:20.489Z,18.85
2023-01-13T22:20:48.845Z,17.20
2023-01-13T22:23:16.088Z,16.15
2023-01-13T22:25:43.058Z,14.03
2023-01-13T22:28:13.888Z,15.32
2023-01-13T22:30:41.196Z,13.68
2023-01-13T22:33:08.191Z,16.52
2023-01-13T22:35:35.159Z,13.63
2023-01-13T22:38:02.281Z,18.30
2023-01-13T22:40:29.256Z,17.67
2023-01-13T22:42:56.397Z,18.50
2023-01-13T22:45:23.357Z,20.55
2023-01-13T22:47:50.290Z,16.88
2023-01-13T22:50:20.805Z,17.17
2023-01-13T22:52:47.965Z,16.23
2023-01-13T22:55:15.061Z,20.13
2023-01-13T22:57:47.787Z,16.85
2023-01-13T23:00:19.239Z,16.35
2023-01-13T23:02:46.740Z,19.00
2023-01-13T23:05:14.186Z,19.88
2023-01-13T23:07:41.421Z,16.73
2023-01-13T23:10:09.125Z,18.75
2023-01-13T23:12:36.101Z,15.80
2023-01-13T23:15:03.797Z,18.17
2023-01-13T23:17:31.142Z,17.42
2023-01-13T23:19:58.178Z,17.23
2023-01-13T23:22:25.123Z,17.92
2023-01-13T23:24:52.063Z,16.17
2023-01-13T23:27:19.148Z,15.87
2023-01-13T23:29:46.143Z,16.15
2023-01-13T23:32:13.081Z,19.90
2023-01-13T23:34:40.096Z,17.20
2023-01-13T23:37:07.039Z,17.88
2023-01-13T23:39:34.026Z,17.23
2023-01-13T23:42:01.048Z,19.35
2023-01-13T23:44:28.050Z,17.80
2023-01-13T23:46:55.132Z,17.42
2023-01-13T23:49:22.135Z,19.45
2023-01-13T23:51:52.348Z,17.90
2023-01-13T23:54:20.216Z,21.25
2023-01-13T23:56:49.619Z,18.55
2023-01-13T23:59:16.727Z,18.83
